sensor_id;sensor_type;location;lat;lon;timestamp;temperature;humidity
25825;DHT22;13658;44.534;18.694;2022-09-01T00:01:42;19.40;99.90
25825;DHT22;13658;44.534;18.694;2022-09-01T00:04:10;19.40;99.90
25825;DHT22;13658;44.534;18.694;2022-09-01T00:06:38;19.40;99.90
25825;DHT22;13658;44.534;18.694;2022-09-01T00:09:09;19.40;99.90
25825;DHT22;13658;44.534;18.694;2022-09-01T00:11:37;19.40;99.90
25825;DHT22;13658;44.534;18.694;2022-09-01T00:14:04;19.30;99.90
25825;DHT22;13658;44.534;18.694;2022-09-01T00:16:31;19.40;99.90
25825;DHT22;13658;44.534;18.694;2022-09-01T00:18:58;19.40;99.90
25825;DHT22;13658;44.534;18.694;2022-09-01T00:21:28;19.40;99.90
25825;DHT22;13658;44.534;18.694;2022-09-01T00:23:55;19.40;99.90
25825;DHT22;13658;44.534;18.694;2022-09-01T00:26:21;19.40;99.90
25825;DHT22;13658;44.534;18.694;2022-09-01T00:28:47;19.40;99.90
25825;DHT22;13658;44.534;18.694;2022-09-01T00:31:13;19.40;99.90
25825;DHT22;13658;44.534;18.694;2022-09-01T00:33:39;19.40;99.90
25825;DHT22;13658;44.534;18.694;2022-09-01T00:36:06;19.40;99.90
25825;DHT22;13658;44.534;18.694;2022-09-01T00:38:32;19.40;99.90
25825;DHT22;13658;44.534;18.694;2022-09-01T00:40:59;19.40;99.90
25825;DHT22;13658;44.534;18.694;2022-09-01T00:46:06;19.30;99.90
25825;DHT22;13658;44.534;18.694;2022-09-01T00:48:33;19.30;99.90
25825;DHT22;13658;44.534;18.694;2022-09-01T00:51:00;19.40;99.90
25825;DHT22;13658;44.534;18.694;2022-09-01T00:53:26;19.40;99.90
25825;DHT22;13658;44.534;18.694;2022-09-01T00:55:53;19.40;99.90
25825;DHT22;13658;44.534;18.694;2022-09-01T00:58:19;19.40;99.90
25825;DHT22;13658;44.534;18.694;2022-09-01T01:00:48;19.40;99.90
25825;DHT22;13658;44.534;18.694;2022-09-01T01:03:14;19.40;99.90
25825;DHT22;13658;44.534;18.694;2022-09-01T01:05:43;19.40;99.90
25825;DHT22;13658;44.534;18.694;2022-09-01T01:08:16;19.40;99.90
25825;DHT22;13658;44.534;18.694;2022-09-01T01:10:44;19.30;99.90
25825;DHT22;13658;44.534;18.694;2022-09-01T01:13:14;19.30;99.90
25825;DHT22;13658;44.534;18.694;2022-09-01T01:15:42;19.30;99.90
25825;DHT22;13658;44.534;18.694;2022-09-01T01:18:13;19.30;99.90
25825;DHT22;13658;44.534;18.694;2022-09-01T01:20:40;19.40;99.90
25825;DHT22;13658;44.534;18.694;2022-09-01T01:23:36;19.40;99.90
25825;DHT22;13658;44.534;18.694;2022-09-01T01:26:06;19.40;99.90
25825;DHT22;13658;44.534;18.694;2022-09-01T01:28:35;19.30;99.90
25825;DHT22;13658;44.534;18.694;2022-09-01T01:31:06;19.20;99.90
25825;DHT22;13658;44.534;18.694;2022-09-01T01:33:43;19.20;99.90
25825;DHT22;13658;44.534;18.694;2022-09-01T01:38:40;19.30;99.90
25825;DHT22;13658;44.534;18.694;2022-09-01T01:41:12;19.30;99.90
25825;DHT22;13658;44.534;18.694;2022-09-01T01:43:40;19.30;99.90
25825;DHT22;13658;44.534;18.694;2022-09-01T01:46:08;19.20;99.90
25825;DHT22;13658;44.534;18.694;2022-09-01T01:48:39;19.10;99.90
25825;DHT22;13658;44.534;18.694;2022-09-01T01:51:07;19.10;99.90
25825;DHT22;13658;44.534;18.694;2022-09-01T01:53:34;19.00;99.90
25825;DHT22;13658;44.534;18.694;2022-09-01T01:56:00;19.00;99.90
25825;DHT22;13658;44.534;18.694;2022-09-01T01:58:32;19.00;99.90
25825;DHT22;13658;44.534;18.694;2022-09-01T02:01:00;19.00;99.90
25825;DHT22;13658;44.534;18.694;2022-09-01T02:03:32;19.00;99.90
25825;DHT22;13658;44.534;18.694;2022-09-01T02:06:06;19.00;99.90
25825;DHT22;13658;44.534;18.694;2022-09-01T02:08:35;19.00;99.90
25825;DHT22;13658;44.534;18.694;2022-09-01T02:11:04;19.00;99.90
25825;DHT22;13658;44.534;18.694;2022-09-01T02:13:30;19.10;99.90
25825;DHT22;13658;44.534;18.694;2022-09-01T02:16:04;19.20;99.90
25825;DHT22;13658;44.534;18.694;2022-09-01T02:18:37;19.20;99.90
25825;DHT22;13658;44.534;18.694;2022-09-01T02:21:08;19.20;99.90
25825;DHT22;13658;44.534;18.694;2022-09-01T02:23:37;19.20;99.90
25825;DHT22;13658;44.534;18.694;2022-09-01T02:26:04;19.20;99.90
25825;DHT22;13658;44.534;18.694;2022-09-01T02:28:36;19.30;99.90
25825;DHT22;13658;44.534;18.694;2022-09-01T02:31:05;19.20;99.90
25825;DHT22;13658;44.534;18.694;2022-09-01T02:33:34;19.10;99.90
25825;DHT22;13658;44.534;18.694;2022-09-01T02:36:07;19.20;99.90
25825;DHT22;13658;44.534;18.694;2022-09-01T02:38:34;19.20;99.90
25825;DHT22;13658;44.534;18.694;2022-09-01T02:41:01;19.20;99.90
25825;DHT22;13658;44.534;18.694;2022-09-01T02:43:29;19.30;99.90
25825;DHT22;13658;44.534;18.694;2022-09-01T02:45:58;19.20;99.90
25825;DHT22;13658;44.534;18.694;2022-09-01T02:48:36;19.20;99.90
25825;DHT22;13658;44.534;18.694;2022-09-01T02:51:22;19.30;99.90
25825;DHT22;13658;44.534;18.694;2022-09-01T02:53:50;19.30;99.90
25825;DHT22;13658;44.534;18.694;2022-09-01T02:56:20;19.30;99.90
25825;DHT22;13658;44.534;18.694;2022-09-01T02:58:48;19.30;99.90
25825;DHT22;13658;44.534;18.694;2022-09-01T03:01:22;19.30;99.90
25825;DHT22;13658;44.534;18.694;2022-09-01T03:03:53;19.30;99.90
25825;DHT22;13658;44.534;18.694;2022-09-01T03:06:20;19.30;99.90
25825;DHT22;13658;44.534;18.694;2022-09-01T03:08:54;19.40;99.90
25825;DHT22;13658;44.534;18.694;2022-09-01T03:11:23;19.40;99.90
25825;DHT22;13658;44.534;18.694;2022-09-01T03:13:50;19.30;99.90
25825;DHT22;13658;44.534;18.694;2022-09-01T03:16:17;19.20;99.90
25825;DHT22;13658;44.534;18.694;2022-09-01T03:18:43;19.20;99.90
25825;DHT22;13658;44.534;18.694;2022-09-01T03:21:10;19.20;99.90
25825;DHT22;13658;44.534;18.694;2022-09-01T03:23:43;19.20;99.90
25825;DHT22;13658;44.534;18.694;2022-09-01T03:26:10;19.10;99.90
25825;DHT22;13658;44.534;18.694;2022-09-01T03:28:36;19.20;99.90
25825;DHT22;13658;44.534;18.694;2022-09-01T03:31:03;19.20;99.90
25825;DHT22;13658;44.534;18.694;2022-09-01T03:33:29;19.10;99.90
25825;DHT22;13658;44.534;18.694;2022-09-01T03:35:58;19.00;99.90
25825;DHT22;13658;44.534;18.694;2022-09-01T03:38:24;19.00;99.90
25825;DHT22;13658;44.534;18.694;2022-09-01T03:40:56;19.00;99.90
25825;DHT22;13658;44.534;18.694;2022-09-01T03:43:26;19.10;99.90
25825;DHT22;13658;44.534;18.694;2022-09-01T03:45:57;19.10;99.90
25825;DHT22;13658;44.534;18.694;2022-09-01T03:48:28;19.00;99.90
25825;DHT22;13658;44.534;18.694;2022-09-01T03:50:56;19.00;99.90
25825;DHT22;13658;44.534;18.694;2022-09-01T03:53:30;18.90;99.90
25825;DHT22;13658;44.534;18.694;2022-09-01T03:55:56;18.80;99.90
25825;DHT22;13658;44.534;18.694;2022-09-01T03:58:23;18.80;99.90
25825;DHT22;13658;44.534;18.694;2022-09-01T04:00:52;18.90;99.90
25825;DHT22;13658;44.534;18.694;2022-09-01T04:03:22;18.90;99.90
25825;DHT22;13658;44.534;18.694;2022-09-01T04:05:50;18.90;99.90
25825;DHT22;13658;44.534;18.694;2022-09-01T04:08:19;18.80;99.90
25825;DHT22;13658;44.534;18.694;2022-09-01T04:10:51;18.80;99.90
25825;DHT22;13658;44.534;18.694;2022-09-01T04:13:21;18.80;99.90
25825;DHT22;13658;44.534;18.694;2022-09-01T04:15:48;18.80;99.90
25825;DHT22;13658;44.534;18.694;2022-09-01T04:18:15;18.80;99.90
25825;DHT22;13658;44.534;18.694;2022-09-01T04:20:53;18.80;99.90
25825;DHT22;13658;44.534;18.694;2022-09-01T04:23:23;18.80;99.90
25825;DHT22;13658;44.534;18.694;2022-09-01T04:25:58;18.80;99.90
25825;DHT22;13658;44.534;18.694;2022-09-01T04:28:35;18.70;99.90
25825;DHT22;13658;44.534;18.694;2022-09-01T04:31:07;18.80;99.90
25825;DHT22;13658;44.534;18.694;2022-09-01T04:33:36;18.90;99.90
25825;DHT22;13658;44.534;18.694;2022-09-01T04:36:20;18.80;99.90
25825;DHT22;13658;44.534;18.694;2022-09-01T04:38:51;18.80;99.90
25825;DHT22;13658;44.534;18.694;2022-09-01T04:41:31;18.80;99.90
25825;DHT22;13658;44.534;18.694;2022-09-01T04:44:03;18.80;99.90
25825;DHT22;13658;44.534;18.694;2022-09-01T04:46:37;18.90;99.90
25825;DHT22;13658;44.534;18.694;2022-09-01T04:49:05;18.90;99.90
25825;DHT22;13658;44.534;18.694;2022-09-01T04:51:43;18.90;99.90
25825;DHT22;13658;44.534;18.694;2022-09-01T04:54:10;18.80;99.90
25825;DHT22;13658;44.534;18.694;2022-09-01T04:56:43;18.90;99.90
25825;DHT22;13658;44.534;18.694;2022-09-01T04:59:13;18.90;99.90
25825;DHT22;13658;44.534;18.694;2022-09-01T05:01:40;18.90;99.90
25825;DHT22;13658;44.534;18.694;2022-09-01T05:04:19;19.00;99.90
25825;DHT22;13658;44.534;18.694;2022-09-01T05:06:51;18.90;99.90
25825;DHT22;13658;44.534;18.694;2022-09-01T05:09:21;19.00;99.90
25825;DHT22;13658;44.534;18.694;2022-09-01T05:12:08;19.00;99.90
25825;DHT22;13658;44.534;18.694;2022-09-01T05:14:40;19.20;99.90
25825;DHT22;13658;44.534;18.694;2022-09-01T05:17:09;19.30;99.90
25825;DHT22;13658;44.534;18.694;2022-09-01T05:19:41;19.30;99.90
25825;DHT22;13658;44.534;18.694;2022-09-01T05:22:11;19.30;99.90
25825;DHT22;13658;44.534;18.694;2022-09-01T05:24:43;19.30;99.90
25825;DHT22;13658;44.534;18.694;2022-09-01T05:27:11;19.40;99.90
25825;DHT22;13658;44.534;18.694;2022-09-01T05:29:42;19.40;99.90
25825;DHT22;13658;44.534;18.694;2022-09-01T05:32:10;19.40;99.90
25825;DHT22;13658;44.534;18.694;2022-09-01T05:34:39;19.40;99.90
25825;DHT22;13658;44.534;18.694;2022-09-01T05:37:07;19.40;99.90
25825;DHT22;13658;44.534;18.694;2022-09-01T05:39:36;19.60;99.90
25825;DHT22;13658;44.534;18.694;2022-09-01T05:42:04;19.70;99.90
25825;DHT22;13658;44.534;18.694;2022-09-01T05:44:40;19.90;99.90
25825;DHT22;13658;44.534;18.694;2022-09-01T05:47:11;20.20;99.90
25825;DHT22;13658;44.534;18.694;2022-09-01T05:49:37;20.30;99.90
25825;DHT22;13658;44.534;18.694;2022-09-01T05:52:06;20.20;99.90
25825;DHT22;13658;44.534;18.694;2022-09-01T05:54:36;20.10;99.90
25825;DHT22;13658;44.534;18.694;2022-09-01T05:57:03;20.20;99.90
25825;DHT22;13658;44.534;18.694;2022-09-01T05:59:29;20.30;99.90
25825;DHT22;13658;44.534;18.694;2022-09-01T06:02:09;20.20;99.90
25825;DHT22;13658;44.534;18.694;2022-09-01T06:04:38;20.00;99.90
25825;DHT22;13658;44.534;18.694;2022-09-01T06:07:15;20.00;99.90
25825;DHT22;13658;44.534;18.694;2022-09-01T06:09:47;20.00;99.90
25825;DHT22;13658;44.534;18.694;2022-09-01T06:12:17;20.00;99.90
25825;DHT22;13658;44.534;18.694;2022-09-01T06:14:46;20.00;99.90
25825;DHT22;13658;44.534;18.694;2022-09-01T06:17:15;19.90;99.90
25825;DHT22;13658;44.534;18.694;2022-09-01T06:19:42;20.00;99.90
25825;DHT22;13658;44.534;18.694;2022-09-01T06:22:08;19.90;99.90
25825;DHT22;13658;44.534;18.694;2022-09-01T06:24:36;19.90;99.90
25825;DHT22;13658;44.534;18.694;2022-09-01T06:27:06;19.90;99.90
25825;DHT22;13658;44.534;18.694;2022-09-01T06:29:38;19.80;99.90
25825;DHT22;13658;44.534;18.694;2022-09-01T06:32:08;19.70;99.90
25825;DHT22;13658;44.534;18.694;2022-09-01T06:34:42;19.80;99.90
25825;DHT22;13658;44.534;18.694;2022-09-01T06:37:10;19.90;99.90
25825;DHT22;13658;44.534;18.694;2022-09-01T06:39:38;19.80;99.90
25825;DHT22;13658;44.534;18.694;2022-09-01T06:42:04;19.70;99.90
25825;DHT22;13658;44.534;18.694;2022-09-01T06:44:42;19.80;99.90
25825;DHT22;13658;44.534;18.694;2022-09-01T06:47:08;19.80;99.90
25825;DHT22;13658;44.534;18.694;2022-09-01T06:49:34;19.60;99.90
25825;DHT22;13658;44.534;18.694;2022-09-01T06:52:04;19.40;99.90
25825;DHT22;13658;44.534;18.694;2022-09-01T06:54:31;19.30;99.90
25825;DHT22;13658;44.534;18.694;2022-09-01T06:57:01;19.50;99.90
25825;DHT22;13658;44.534;18.694;2022-09-01T06:59:29;19.40;99.90
25825;DHT22;13658;44.534;18.694;2022-09-01T07:02:01;19.20;99.90
25825;DHT22;13658;44.534;18.694;2022-09-01T07:04:47;19.40;99.90
25825;DHT22;13658;44.534;18.694;2022-09-01T07:07:14;19.60;99.90
25825;DHT22;13658;44.534;18.694;2022-09-01T07:09:55;19.60;99.90
25825;DHT22;13658;44.534;18.694;2022-09-01T07:12:43;19.70;99.90
25825;DHT22;13658;44.534;18.694;2022-09-01T07:15:12;19.70;99.90
25825;DHT22;13658;44.534;18.694;2022-09-01T07:17:55;19.70;99.90
25825;DHT22;13658;44.534;18.694;2022-09-01T07:20:24;19.80;99.90
25825;DHT22;13658;44.534;18.694;2022-09-01T07:22:52;20.00;99.90
25825;DHT22;13658;44.534;18.694;2022-09-01T07:25:19;20.30;99.90
25825;DHT22;13658;44.534;18.694;2022-09-01T07:27:48;20.50;99.90
25825;DHT22;13658;44.534;18.694;2022-09-01T07:30:17;20.40;99.90
25825;DHT22;13658;44.534;18.694;2022-09-01T07:32:44;20.20;99.90
25825;DHT22;13658;44.534;18.694;2022-09-01T07:35:13;20.20;99.90
25825;DHT22;13658;44.534;18.694;2022-09-01T07:37:39;20.30;99.90
25825;DHT22;13658;44.534;18.694;2022-09-01T07:40:09;20.20;99.90
25825;DHT22;13658;44.534;18.694;2022-09-01T07:42:54;20.50;99.90
25825;DHT22;13658;44.534;18.694;2022-09-01T07:45:43;20.40;99.90
25825;DHT22;13658;44.534;18.694;2022-09-01T07:48:18;20.70;99.90
25825;DHT22;13658;44.534;18.694;2022-09-01T07:50:50;20.70;99.90
25825;DHT22;13658;44.534;18.694;2022-09-01T07:53:29;20.80;99.90
25825;DHT22;13658;44.534;18.694;2022-09-01T07:55:59;20.40;99.90
25825;DHT22;13658;44.534;18.694;2022-09-01T07:58:27;20.30;99.90
25825;DHT22;13658;44.534;18.694;2022-09-01T08:01:13;20.40;99.90
25825;DHT22;13658;44.534;18.694;2022-09-01T08:03:42;20.10;99.90
25825;DHT22;13658;44.534;18.694;2022-09-01T08:06:12;20.10;99.90
25825;DHT22;13658;44.534;18.694;2022-09-01T08:08:39;20.00;99.90
25825;DHT22;13658;44.534;18.694;2022-09-01T08:11:07;20.10;99.90
25825;DHT22;13658;44.534;18.694;2022-09-01T08:13:35;20.00;99.90
25825;DHT22;13658;44.534;18.694;2022-09-01T08:16:06;19.80;99.90
25825;DHT22;13658;44.534;18.694;2022-09-01T08:18:33;19.80;99.90
25825;DHT22;13658;44.534;18.694;2022-09-01T08:21:04;19.80;99.90
25825;DHT22;13658;44.534;18.694;2022-09-01T08:23:55;19.70;99.90
25825;DHT22;13658;44.534;18.694;2022-09-01T08:26:24;19.90;99.90
25825;DHT22;13658;44.534;18.694;2022-09-01T08:28:51;20.10;99.90
25825;DHT22;13658;44.534;18.694;2022-09-01T08:31:24;20.20;99.90
25825;DHT22;13658;44.534;18.694;2022-09-01T08:33:52;20.20;99.90
25825;DHT22;13658;44.534;18.694;2022-09-01T08:36:19;20.30;99.90
25825;DHT22;13658;44.534;18.694;2022-09-01T08:38:45;20.60;99.90
25825;DHT22;13658;44.534;18.694;2022-09-01T08:41:40;20.60;99.90
25825;DHT22;13658;44.534;18.694;2022-09-01T08:44:16;20.50;99.90
25825;DHT22;13658;44.534;18.694;2022-09-01T08:46:44;20.60;99.90
25825;DHT22;13658;44.534;18.694;2022-09-01T08:49:19;20.50;99.90
25825;DHT22;13658;44.534;18.694;2022-09-01T08:52:34;20.50;99.90
25825;DHT22;13658;44.534;18.694;2022-09-01T08:57:44;21.10;99.90
25825;DHT22;13658;44.534;18.694;2022-09-01T09:00:24;21.40;99.90
25825;DHT22;13658;44.534;18.694;2022-09-01T09:08:47;21.20;99.90
25825;DHT22;13658;44.534;18.694;2022-09-01T09:16:51;21.10;99.90
25825;DHT22;13658;44.534;18.694;2022-09-01T09:19:24;21.00;99.90
25825;DHT22;13658;44.534;18.694;2022-09-01T09:21:53;21.00;99.90
25825;DHT22;13658;44.534;18.694;2022-09-01T09:27:29;20.90;99.90
25825;DHT22;13658;44.534;18.694;2022-09-01T09:29:58;20.70;99.90
25825;DHT22;13658;44.534;18.694;2022-09-01T09:37:52;21.10;99.90
25825;DHT22;13658;44.534;18.694;2022-09-01T09:40:24;21.00;99.90
25825;DHT22;13658;44.534;18.694;2022-09-01T09:48:48;20.80;99.90
25825;DHT22;13658;44.534;18.694;2022-09-01T09:50:49;20.70;99.90
25825;DHT22;13658;44.534;18.694;2022-09-01T09:53:28;20.70;99.90
25825;DHT22;13658;44.534;18.694;2022-09-01T09:56:20;20.80;99.90
25825;DHT22;13658;44.534;18.694;2022-09-01T09:58:50;20.50;99.90
25825;DHT22;13658;44.534;18.694;2022-09-01T10:03:52;20.50;99.90
25825;DHT22;13658;44.534;18.694;2022-09-01T10:06:30;20.40;99.90
25825;DHT22;13658;44.534;18.694;2022-09-01T10:08:57;20.60;99.90
25825;DHT22;13658;44.534;18.694;2022-09-01T10:11:39;20.50;99.90
25825;DHT22;13658;44.534;18.694;2022-09-01T10:14:15;20.70;99.90
25825;DHT22;13658;44.534;18.694;2022-09-01T10:16:43;20.90;99.90
25825;DHT22;13658;44.534;18.694;2022-09-01T10:19:12;20.90;99.90
25825;DHT22;13658;44.534;18.694;2022-09-01T10:21:40;21.00;99.90
25825;DHT22;13658;44.534;18.694;2022-09-01T10:26:58;20.60;99.90
25825;DHT22;13658;44.534;18.694;2022-09-01T10:29:35;20.70;99.90
25825;DHT22;13658;44.534;18.694;2022-09-01T10:32:10;20.80;99.90
25825;DHT22;13658;44.534;18.694;2022-09-01T10:34:38;20.90;99.90
25825;DHT22;13658;44.534;18.694;2022-09-01T10:37:05;20.80;99.90
25825;DHT22;13658;44.534;18.694;2022-09-01T10:39:32;21.00;99.90
25825;DHT22;13658;44.534;18.694;2022-09-01T10:41:59;20.90;99.90
25825;DHT22;13658;44.534;18.694;2022-09-01T10:44:37;20.80;99.90
25825;DHT22;13658;44.534;18.694;2022-09-01T10:47:33;20.70;99.90
25825;DHT22;13658;44.534;18.694;2022-09-01T10:50:29;20.80;99.90
25825;DHT22;13658;44.534;18.694;2022-09-01T10:53:04;20.60;99.90
25825;DHT22;13658;44.534;18.694;2022-09-01T10:55:47;20.70;99.90
25825;DHT22;13658;44.534;18.694;2022-09-01T10:58:34;20.70;99.90
25825;DHT22;13658;44.534;18.694;2022-09-01T11:01:05;20.60;99.90
25825;DHT22;13658;44.534;18.694;2022-09-01T11:03:32;20.60;99.90
25825;DHT22;13658;44.534;18.694;2022-09-01T11:06:00;20.50;99.90
25825;DHT22;13658;44.534;18.694;2022-09-01T11:11:05;20.60;99.90
25825;DHT22;13658;44.534;18.694;2022-09-01T11:13:44;20.50;99.90
25825;DHT22;13658;44.534;18.694;2022-09-01T11:19:35;20.30;99.90
25825;DHT22;13658;44.534;18.694;2022-09-01T11:22:10;20.10;99.90
25825;DHT22;13658;44.534;18.694;2022-09-01T11:27:11;20.30;99.90
25825;DHT22;13658;44.534;18.694;2022-09-01T11:30:01;20.20;99.90
25825;DHT22;13658;44.534;18.694;2022-09-01T11:32:34;20.20;99.90
25825;DHT22;13658;44.534;18.694;2022-09-01T11:35:04;20.00;99.90
25825;DHT22;13658;44.534;18.694;2022-09-01T11:37:32;19.70;99.90
25825;DHT22;13658;44.534;18.694;2022-09-01T11:40:00;19.60;99.90
25825;DHT22;13658;44.534;18.694;2022-09-01T11:42:36;19.70;99.90
25825;DHT22;13658;44.534;18.694;2022-09-01T11:47:38;19.80;99.90
25825;DHT22;13658;44.534;18.694;2022-09-01T11:50:29;19.70;99.90
25825;DHT22;13658;44.534;18.694;2022-09-01T11:53:07;19.60;99.90
25825;DHT22;13658;44.534;18.694;2022-09-01T11:55:41;19.50;99.90
25825;DHT22;13658;44.534;18.694;2022-09-01T11:58:30;19.30;99.90
25825;DHT22;13658;44.534;18.694;2022-09-01T12:03:45;18.70;99.90
25825;DHT22;13658;44.534;18.694;2022-09-01T12:06:22;18.50;99.90
25825;DHT22;13658;44.534;18.694;2022-09-01T12:09:01;18.20;99.90
25825;DHT22;13658;44.534;18.694;2022-09-01T12:11:33;18.10;99.90
25825;DHT22;13658;44.534;18.694;2022-09-01T12:14:02;18.00;99.90
25825;DHT22;13658;44.534;18.694;2022-09-01T12:16:31;17.90;99.90
25825;DHT22;13658;44.534;18.694;2022-09-01T12:18:59;17.90;99.90
25825;DHT22;13658;44.534;18.694;2022-09-01T12:26:39;17.80;99.90
25825;DHT22;13658;44.534;18.694;2022-09-01T12:29:06;17.70;99.90
25825;DHT22;13658;44.534;18.694;2022-09-01T12:31:32;17.70;99.90
25825;DHT22;13658;44.534;18.694;2022-09-01T12:33:59;17.40;99.90
25825;DHT22;13658;44.534;18.694;2022-09-01T12:36:32;17.30;99.90
25825;DHT22;13658;44.534;18.694;2022-09-01T12:39:19;17.30;99.90
25825;DHT22;13658;44.534;18.694;2022-09-01T12:42:00;17.20;99.90
25825;DHT22;13658;44.534;18.694;2022-09-01T12:44:42;17.10;99.90
25825;DHT22;13658;44.534;18.694;2022-09-01T12:47:11;17.10;99.90
25825;DHT22;13658;44.534;18.694;2022-09-01T12:49:45;17.10;99.90
25825;DHT22;13658;44.534;18.694;2022-09-01T12:54:50;17.10;99.90
25825;DHT22;13658;44.534;18.694;2022-09-01T12:57:50;17.20;99.90
25825;DHT22;13658;44.534;18.694;2022-09-01T13:00:21;17.10;99.90
25825;DHT22;13658;44.534;18.694;2022-09-01T13:05:31;17.10;99.90
25825;DHT22;13658;44.534;18.694;2022-09-01T13:08:03;17.10;99.90
25825;DHT22;13658;44.534;18.694;2022-09-01T13:10:36;17.10;99.90
25825;DHT22;13658;44.534;18.694;2022-09-01T13:13:04;17.10;99.90
25825;DHT22;13658;44.534;18.694;2022-09-01T13:15:32;17.10;99.90
25825;DHT22;13658;44.534;18.694;2022-09-01T13:17:58;17.00;99.90
25825;DHT22;13658;44.534;18.694;2022-09-01T13:20:24;17.00;99.90
25825;DHT22;13658;44.534;18.694;2022-09-01T13:22:50;17.10;99.90
25825;DHT22;13658;44.534;18.694;2022-09-01T13:25:18;17.10;99.90
25825;DHT22;13658;44.534;18.694;2022-09-01T13:27:45;17.00;99.90
25825;DHT22;13658;44.534;18.694;2022-09-01T13:30:18;17.00;99.90
25825;DHT22;13658;44.534;18.694;2022-09-01T13:32:46;17.00;99.90
25825;DHT22;13658;44.534;18.694;2022-09-01T13:35:14;17.00;99.90
25825;DHT22;13658;44.534;18.694;2022-09-01T13:37:41;17.00;99.90
25825;DHT22;13658;44.534;18.694;2022-09-01T13:40:08;17.10;99.90
25825;DHT22;13658;44.534;18.694;2022-09-01T13:42:48;17.00;99.90
25825;DHT22;13658;44.534;18.694;2022-09-01T13:45:15;17.10;99.90
25825;DHT22;13658;44.534;18.694;2022-09-01T13:47:47;17.00;99.90
25825;DHT22;13658;44.534;18.694;2022-09-01T13:50:16;17.00;99.90
25825;DHT22;13658;44.534;18.694;2022-09-01T13:52:49;17.00;99.90
25825;DHT22;13658;44.534;18.694;2022-09-01T13:55:21;16.90;99.90
25825;DHT22;13658;44.534;18.694;2022-09-01T13:57:48;16.90;99.90
25825;DHT22;13658;44.534;18.694;2022-09-01T14:00:17;16.90;99.90
25825;DHT22;13658;44.534;18.694;2022-09-01T14:02:48;16.90;99.90
25825;DHT22;13658;44.534;18.694;2022-09-01T14:05:26;16.90;99.90
25825;DHT22;13658;44.534;18.694;2022-09-01T14:07:52;16.80;99.90
25825;DHT22;13658;44.534;18.694;2022-09-01T14:10:20;16.80;99.90
25825;DHT22;13658;44.534;18.694;2022-09-01T14:12:47;16.80;99.90
25825;DHT22;13658;44.534;18.694;2022-09-01T14:15:15;16.70;99.90
25825;DHT22;13658;44.534;18.694;2022-09-01T14:17:42;16.70;99.90
25825;DHT22;13658;44.534;18.694;2022-09-01T14:20:13;16.70;99.90
25825;DHT22;13658;44.534;18.694;2022-09-01T14:22:39;16.70;99.90
25825;DHT22;13658;44.534;18.694;2022-09-01T14:25:06;16.60;99.90
25825;DHT22;13658;44.534;18.694;2022-09-01T14:27:32;16.70;99.90
25825;DHT22;13658;44.534;18.694;2022-09-01T14:29:58;16.60;99.90
25825;DHT22;13658;44.534;18.694;2022-09-01T14:32:25;16.60;99.90
25825;DHT22;13658;44.534;18.694;2022-09-01T14:34:56;16.60;99.90
25825;DHT22;13658;44.534;18.694;2022-09-01T14:37:22;16.60;99.90
25825;DHT22;13658;44.534;18.694;2022-09-01T14:39:53;16.50;99.90
25825;DHT22;13658;44.534;18.694;2022-09-01T14:42:20;16.50;99.90
25825;DHT22;13658;44.534;18.694;2022-09-01T14:44:50;16.50;99.90
25825;DHT22;13658;44.534;18.694;2022-09-01T14:47:16;16.40;99.90
25825;DHT22;13658;44.534;18.694;2022-09-01T14:49:43;16.40;99.90
25825;DHT22;13658;44.534;18.694;2022-09-01T14:52:10;16.30;99.90
25825;DHT22;13658;44.534;18.694;2022-09-01T14:54:37;16.30;99.90
25825;DHT22;13658;44.534;18.694;2022-09-01T14:57:04;16.30;99.90
25825;DHT22;13658;44.534;18.694;2022-09-01T14:59:31;16.30;99.90
25825;DHT22;13658;44.534;18.694;2022-09-01T15:01:57;16.30;99.90
25825;DHT22;13658;44.534;18.694;2022-09-01T15:04:24;16.20;99.90
25825;DHT22;13658;44.534;18.694;2022-09-01T15:06:53;16.20;99.90
25825;DHT22;13658;44.534;18.694;2022-09-01T15:09:19;16.20;99.90
25825;DHT22;13658;44.534;18.694;2022-09-01T15:11:45;16.20;99.90
25825;DHT22;13658;44.534;18.694;2022-09-01T15:14:11;16.20;99.90
25825;DHT22;13658;44.534;18.694;2022-09-01T15:16:39;16.30;99.90
25825;DHT22;13658;44.534;18.694;2022-09-01T15:19:11;16.30;99.90
25825;DHT22;13658;44.534;18.694;2022-09-01T15:21:39;16.30;99.90
25825;DHT22;13658;44.534;18.694;2022-09-01T15:24:06;16.10;99.90
25825;DHT22;13658;44.534;18.694;2022-09-01T15:26:34;16.10;99.90
25825;DHT22;13658;44.534;18.694;2022-09-01T15:29:01;16.10;99.90
25825;DHT22;13658;44.534;18.694;2022-09-01T15:31:28;16.00;99.90
25825;DHT22;13658;44.534;18.694;2022-09-01T15:33:58;16.00;99.90
25825;DHT22;13658;44.534;18.694;2022-09-01T15:36:26;16.00;99.90
25825;DHT22;13658;44.534;18.694;2022-09-01T15:38:55;15.90;99.90
25825;DHT22;13658;44.534;18.694;2022-09-01T15:41:26;15.90;99.90
25825;DHT22;13658;44.534;18.694;2022-09-01T15:43:53;15.90;99.90
25825;DHT22;13658;44.534;18.694;2022-09-01T15:46:23;16.00;99.90
25825;DHT22;13658;44.534;18.694;2022-09-01T15:48:57;15.90;99.90
25825;DHT22;13658;44.534;18.694;2022-09-01T15:51:38;15.90;99.90
25825;DHT22;13658;44.534;18.694;2022-09-01T15:54:08;15.90;99.90
25825;DHT22;13658;44.534;18.694;2022-09-01T15:56:38;15.90;99.90
25825;DHT22;13658;44.534;18.694;2022-09-01T15:59:06;15.90;99.90
25825;DHT22;13658;44.534;18.694;2022-09-01T16:01:43;15.90;99.90
25825;DHT22;13658;44.534;18.694;2022-09-01T16:04:12;15.90;99.90
25825;DHT22;13658;44.534;18.694;2022-09-01T16:06:39;15.90;99.90
25825;DHT22;13658;44.534;18.694;2022-09-01T16:09:07;15.90;99.90
25825;DHT22;13658;44.534;18.694;2022-09-01T16:11:34;15.80;99.90
25825;DHT22;13658;44.534;18.694;2022-09-01T16:14:03;15.90;99.90
25825;DHT22;13658;44.534;18.694;2022-09-01T16:16:35;15.90;99.90
25825;DHT22;13658;44.534;18.694;2022-09-01T16:24:24;15.90;99.90
25825;DHT22;13658;44.534;18.694;2022-09-01T16:26:50;15.90;99.90
25825;DHT22;13658;44.534;18.694;2022-09-01T16:29:27;15.80;99.90
25825;DHT22;13658;44.534;18.694;2022-09-01T16:31:57;15.70;99.90
25825;DHT22;13658;44.534;18.694;2022-09-01T16:34:23;15.60;99.90
25825;DHT22;13658;44.534;18.694;2022-09-01T16:40:04;15.60;99.90
25825;DHT22;13658;44.534;18.694;2022-09-01T16:42:47;15.70;99.90
25825;DHT22;13658;44.534;18.694;2022-09-01T16:51:22;15.50;99.90
25825;DHT22;13658;44.534;18.694;2022-09-01T16:56:24;15.50;99.90
25825;DHT22;13658;44.534;18.694;2022-09-01T16:59:06;15.40;99.90